x

South Georgian Bay (45143) Wave Buoy

7:00am - Sat 18th Nov 2017 All times are CST. -6 hours from GMT.

  • Sig Wave height 3.3ft
  • Peak Period 5s
  • Wind
    9mph, 13mph gusts
  • Sea Temp 47°f
  • Air Temp 43°f
  • Sea Pressure 999.6mb
  • South Georgian Bay
  • South Georgian Bay

More Historic Weather Station data

Upgrade to MSW Pro to gain access to the past 30 days of data for over 8000 Wavebouys and Weather Stations around the globe.

Join

Comparision Forecast

View Surf forecast
   
Sat 11/18 7:00am 3.5ft 5s 9 13 mph 999.6mb 47f 43f
6:00am 4ft 5s 16 20 mph 999.8mb 47f 42f
5:00am 4.5ft 5s 20 25 mph 999.9mb 47f 41f
4:00am 4ft 5s 22 27 mph 1000.7mb 47f 40f
3:00am 3.5ft 5s 25 29 mph 1001.8mb 47f 40f
2:00am 3.5ft 5s 22 27 mph 1003.6mb 47f 40f
1:00am 4ft 5s 18 20 mph 1005.7mb 47f 40f
12:00am 4ft 5s 18 22 mph 1006.6mb 47f 40f
Fri 11/17 11:00pm 3.5ft 5s 18 22 mph 1007.4mb 47f 41f
10:00pm 3.5ft 5s 20 22 mph 1008.6mb 47f 41f
9:00pm 3.5ft 5s 18 20 mph 1010.5mb 47f 40f
8:00pm 3.5ft 4s 18 22 mph 1011.3mb 47f 39f
7:00pm 3ft 4s 18 20 mph 1012.5mb 47f 38f
6:00pm 2.5ft 4s 18 20 mph 1013.8mb 47f 38f
5:00pm 2.5ft 4s 16 20 mph 1015.1mb 47f 38f
4:00pm 2ft 4s 18 20 mph 1016.2mb 47f 38f
3:00pm 2ft 3s 18 22 mph 1017.5mb 47f 36f
2:00pm 1.3ft 2s 18 22 mph 1017.9mb 47f 34f
1:00pm 0.7ft 2s 11 16 mph 1020.4mb 47f 33f
12:00pm 0.7ft 4s 9 13 mph 1021.8mb 47f 32f
11:00am 1ft 4s 9 13 mph 1022.3mb 47f 31f
10:00am 1ft 4s 4 9 mph 1023.8mb 46f 30f
9:00am 1.3ft 4s 2 7 mph 1024.9mb 46f 30f
8:00am 1.6ft 4s 2 7 mph 1025.3mb 46f 29f
7:00am 2ft 4s 2 7 mph 1025.8mb 46f 28f
6:00am 2.5ft 5s 4 9 mph 1025.9mb 46f 28f
5:00am 2.5ft 5s 9 13 mph 1025.5mb 46f 28f
4:00am 3ft 5s 11 16 mph 1025.1mb 46f 28f
3:00am 3ft 5s 11 18 mph 1024.6mb 46f 28f
2:00am 4ft 6s 13 18 mph 1024.4mb 46f 28f
1:00am 4.5ft 6s 16 22 mph 1024.7mb 46f 29f
12:00am 4.5ft 6s 16 22 mph 1024.3mb 46f 29f
Thu 11/16 11:00pm 5ft 6s 16 20 mph 1023.4mb 47f 29f
10:00pm 6ft 6s 18 25 mph 1022.7mb 47f 29f
9:00pm  -   -  22
mph
- - 30f
8:00pm 6.5ft 6s 22 27 mph 1022.1mb 47f 31f
7:00pm 7ft 7s 25 31 mph 1021.1mb 47f 33f
6:00pm 7.5ft 7s 22 29 mph 1020.3mb 47f 33f
5:00pm 7.5ft 7s 25 31 mph 1019.1mb 47f 34f
4:00pm 8ft 7s 27 36 mph 1017.4mb 47f 35f
3:00pm 8ft 7s 25 31 mph 1016mb 47f 35f
1:00pm 8ft 7s 29 36 mph 1013mb 47f 37f
12:00pm 9ft 7s 27 34 mph 1011.5mb 47f 38f
11:00am 9ft 7s 29 36 mph 1009.8mb 47f 38f
10:00am 8.5ft 7s 29 36 mph 1008.6mb 47f 40f
9:00am 7.5ft 6s 27 34 mph 1007.3mb 47f 40f
7:00am 6ft 6s 27 34 mph 1003.8mb 47f 41f
6:00am 5ft 5s 25 31 mph 1002.2mb 47f 42f
5:00am 5ft 6s 27 31 mph 1000.7mb 47f 43f
4:00am 5ft 4s 25 29 mph 1000.2mb 47f 43f
3:00am 5ft 5s 27 34 mph - 47f 44f
2:00am 5ft 4s 27 34 mph 999.5mb 47f 44f
12:00am 3.5ft 4s 25 31 mph 998.7mb 47f 46f
Wed 11/15 11:00pm 4ft 4s 22 27 mph 998.7mb 47f 45f
10:00pm 4.5ft 5s 20 25 mph 999.5mb 47f 45f
9:00pm 4.5ft 6s 18 22 mph 1000.5mb 47f 44f
8:00pm 6ft 6s 25 31 mph 1001.2mb 47f 43f
7:00pm 7ft 6s 27 34 mph 1002.6mb 47f 42f
6:00pm 7ft 6s 34 40 mph 1003.6mb 47f 42f
5:00pm 6.5ft 6s 31 38 mph 1004.9mb 47f 41f
4:00pm 7ft 6s 34 40 mph 1006.1mb 47f 43f
3:00pm 6ft 5s 36 43 mph 1006.7mb 47f 44f
2:00pm 5ft 5s 29 36 mph 1007.9mb 47f 44f
1:00pm 4ft 5s 25 29 mph 1010.5mb 47f 45f
12:00pm 3.5ft 5s 22 27 mph 1012.3mb 47f 44f
11:00am 3.5ft 5s 18 22 mph 1013mb 47f 44f
10:00am 3.5ft 5s 20 25 mph 1014.3mb 47f 44f
9:00am 3.5ft 5s 18 22 mph 1015.5mb 47f 44f
8:00am 3.5ft 5s 18 20 mph 1016.8mb 47f 43f
7:00am 3.5ft 5s 18 22 mph 1018mb 47f 43f
6:00am 3ft 4s 18 22 mph 1018.8mb 47f 44f
5:00am 2.5ft 4s 18 20 mph 1019.3mb 47f 44f
4:00am 2.5ft 4s 18 22 mph 1020.4mb 48f 44f
3:00am 2.5ft 4s 16 18 mph 1021mb 48f 44f
2:00am 2.5ft 4s 13 18 mph 1021.4mb 48f 44f
1:00am 2.5ft 3s 16 20 mph 1021.9mb 48f 44f
12:00am 2.5ft 4s 16 18 mph 1022.6mb 48f 43f
Tue 11/14 11:00pm 2.5ft 3s 16 18 mph 1022.8mb 48f 42f
10:00pm 2.5ft 3s 18 20 mph 1023mb 48f 42f
9:00pm 2ft 4s 20 22 mph 1023.3mb 48f 44f
8:00pm 1.6ft 3s 18 20 mph 1023.4mb 48f 44f
7:00pm 1.6ft 3s 16 20 mph 1023.9mb 48f 45f
6:00pm 1ft 2s 13 18 mph 1024.1mb 48f 45f
5:00pm 0.7ft 2s 13 16 mph 1024.3mb 49f 45f
4:00pm 0.7ft 3s 11 13 mph 1024.8mb 49f 45f